createdAt,value
2022-10-18T00:01:04.801Z,10.50
2022-10-18T00:03:33.644Z,10.44
2022-10-18T00:06:02.188Z,10.58
2022-10-18T00:08:30.055Z,10.41
2022-10-18T00:10:57.657Z,10.42
2022-10-18T00:13:26.176Z,10.48
2022-10-18T00:15:58.814Z,10.47
2022-10-18T00:18:26.802Z,10.52
2022-10-18T00:21:08.520Z,10.50
2022-10-18T00:23:36.782Z,10.39
2022-10-18T00:26:17.517Z,10.35
2022-10-18T00:28:54.362Z,10.33
2022-10-18T00:31:28.930Z,10.28
2022-10-18T00:34:06.612Z,10.27
2022-10-18T00:36:35.267Z,10.19
2022-10-18T00:39:06.231Z,10.10
2022-10-18T00:41:36.566Z,10.17
2022-10-18T00:44:13.156Z,10.21
2022-10-18T00:46:44.256Z,10.18
2022-10-18T00:49:17.379Z,10.17
2022-10-18T00:52:00.243Z,10.10
2022-10-18T00:54:30.521Z,9.77
2022-10-18T00:56:58.303Z,9.52
2022-10-18T00:59:26.857Z,9.44
2022-10-18T01:01:54.645Z,10.04
2022-10-18T01:04:23.075Z,9.54
2022-10-18T01:07:17.480Z,8.79
2022-10-18T01:10:15.306Z,8.36
2022-10-18T01:13:26.086Z,8.27
2022-10-18T01:16:05.370Z,8.24
2022-10-18T01:18:56.699Z,8.17
2022-10-18T01:21:54.069Z,8.29
2022-10-18T01:24:45.238Z,8.19
2022-10-18T01:27:25.828Z,8.14
2022-10-18T01:30:14.621Z,8.49
2022-10-18T01:32:49.267Z,8.44
2022-10-18T01:35:26.393Z,8.10
2022-10-18T01:37:57.631Z,8.09
2022-10-18T01:40:26.164Z,7.90
2022-10-18T01:42:53.563Z,7.78
2022-10-18T01:45:24.938Z,7.73
2022-10-18T01:47:55.141Z,7.68
2022-10-18T01:50:31.665Z,7.86
2022-10-18T01:52:59.907Z,7.88
2022-10-18T01:55:43.252Z,7.65
2022-10-18T01:58:33.886Z,7.78
2022-10-18T02:01:08.965Z,7.62
2022-10-18T02:03:44.703Z,7.52
2022-10-18T02:06:38.475Z,7.46
2022-10-18T02:09:16.761Z,7.50
2022-10-18T02:11:48.337Z,7.25
2022-10-18T02:14:19.678Z,7.30
2022-10-18T02:16:57.746Z,7.35
2022-10-18T02:19:39.105Z,7.44
2022-10-18T02:22:09.884Z,7.56
2022-10-18T02:24:46.748Z,7.69
2022-10-18T02:27:14.754Z,7.71
2022-10-18T02:29:43.993Z,7.74
2022-10-18T02:32:18.480Z,7.83
2022-10-18T02:35:24.536Z,7.77
2022-10-18T02:37:54.708Z,7.86
2022-10-18T02:40:22.459Z,8.02
2022-10-18T02:42:55.852Z,7.88
2022-10-18T02:45:24.927Z,7.96
2022-10-18T02:47:53.037Z,7.98
2022-10-18T02:50:20.510Z,7.94
2022-10-18T02:52:47.991Z,7.99
2022-10-18T02:55:15.669Z,8.04
2022-10-18T02:57:43.374Z,8.14
2022-10-18T03:00:11.609Z,8.28
2022-10-18T03:02:39.094Z,8.11
2022-10-18T03:05:07.075Z,7.96
2022-10-18T03:07:34.861Z,7.95
2022-10-18T03:10:02.564Z,8.07
2022-10-18T03:12:30.015Z,8.22
2022-10-18T03:14:57.419Z,8.14
2022-10-18T03:17:24.945Z,7.97
2022-10-18T03:19:52.351Z,7.72
2022-10-18T03:22:20.035Z,7.74
2022-10-18T03:24:47.591Z,7.78
2022-10-18T03:27:15.089Z,7.95
2022-10-18T03:29:42.615Z,8.06
2022-10-18T03:32:10.047Z,8.08
2022-10-18T03:34:37.464Z,7.98
2022-10-18T03:37:05.546Z,8.13
2022-10-18T03:39:33.120Z,8.16
2022-10-18T03:42:00.539Z,7.99
2022-10-18T03:44:28.020Z,7.97
2022-10-18T03:46:55.486Z,8.01
2022-10-18T03:49:22.908Z,8.14
2022-10-18T03:51:50.335Z,7.80
2022-10-18T03:54:17.860Z,7.64
2022-10-18T03:56:45.253Z,7.76
2022-10-18T03:59:12.644Z,7.64
2022-10-18T04:01:40.127Z,7.54
2022-10-18T04:04:07.681Z,7.35
2022-10-18T04:06:35.090Z,7.19
2022-10-18T04:09:04.257Z,6.93
2022-10-18T04:11:34.147Z,7.13
2022-10-18T04:14:01.720Z,6.97
2022-10-18T04:16:29.176Z,6.72
2022-10-18T04:18:56.617Z,6.66
2022-10-18T04:21:24.169Z,6.67
2022-10-18T04:23:51.947Z,6.48
2022-10-18T04:26:19.711Z,6.61
2022-10-18T04:28:47.179Z,6.64
2022-10-18T04:31:14.769Z,6.72
2022-10-18T04:33:42.228Z,6.53
2022-10-18T04:36:09.619Z,6.54
2022-10-18T04:38:37.103Z,6.45
2022-10-18T04:41:04.663Z,6.44
2022-10-18T04:43:32.825Z,6.41
2022-10-18T04:46:00.775Z,6.46
2022-10-18T04:48:28.982Z,6.78
2022-10-18T04:50:56.544Z,6.72
2022-10-18T04:53:24.089Z,6.80
2022-10-18T04:55:51.913Z,6.90
2022-10-18T04:58:20.112Z,6.86
2022-10-18T05:00:47.869Z,6.98
2022-10-18T05:03:16.601Z,7.23
2022-10-18T05:06:03.128Z,7.13
2022-10-18T05:08:32.980Z,6.95
2022-10-18T05:11:01.528Z,6.74
2022-10-18T05:13:30.227Z,6.88
2022-10-18T05:15:59.542Z,6.96
2022-10-18T05:18:27.600Z,6.88
2022-10-18T05:20:55.151Z,7.03
2022-10-18T05:23:22.974Z,7.05
2022-10-18T05:25:50.853Z,7.20
2022-10-18T05:28:38.572Z,7.41
2022-10-18T05:31:08.031Z,7.59
2022-10-18T05:33:36.203Z,7.51
2022-10-18T05:36:04.150Z,7.61
2022-10-18T05:38:31.820Z,7.85
2022-10-18T05:41:03.860Z,8.13
2022-10-18T05:43:31.370Z,8.25
2022-10-18T05:45:58.780Z,8.58
2022-10-18T05:48:26.715Z,8.60
2022-10-18T05:50:54.131Z,8.10
2022-10-18T05:53:37.810Z,8.08
2022-10-18T05:56:07.623Z,8.22
2022-10-18T05:58:35.506Z,8.55
2022-10-18T06:01:04.634Z,8.83
2022-10-18T06:03:32.810Z,8.62
2022-10-18T06:06:09.622Z,8.82
2022-10-18T06:08:39.211Z,8.89
2022-10-18T06:11:09.245Z,9.00
2022-10-18T06:13:48.030Z,9.18
2022-10-18T06:16:21.362Z,9.47
2022-10-18T06:18:54.634Z,9.65
2022-10-18T06:21:23.759Z,9.89
2022-10-18T06:23:59.476Z,10.10
2022-10-18T06:26:28.712Z,10.15
2022-10-18T06:28:56.318Z,10.35
2022-10-18T06:31:25.569Z,10.41
2022-10-18T06:33:53.131Z,10.54
2022-10-18T06:36:24.764Z,10.66
2022-10-18T06:38:52.610Z,10.70
2022-10-18T06:41:20.564Z,10.91
2022-10-18T06:43:53.559Z,11.04
2022-10-18T06:46:21.163Z,11.30
2022-10-18T06:48:48.594Z,11.45
2022-10-18T06:51:16.083Z,11.55
2022-10-18T06:53:59.129Z,11.78
2022-10-18T06:56:31.289Z,12.01
2022-10-18T07:01:31.264Z,12.13
2022-10-18T07:03:58.796Z,12.14
2022-10-18T07:06:26.414Z,12.54
2022-10-18T07:08:54.311Z,12.47
2022-10-18T07:11:26.008Z,12.99
2022-10-18T07:14:00.340Z,12.67
2022-10-18T07:16:27.902Z,12.86
2022-10-18T07:18:55.668Z,13.54
2022-10-18T07:21:26.367Z,13.41
2022-10-18T07:23:54.369Z,13.30
2022-10-18T07:26:34.091Z,13.73
2022-10-18T07:29:12.372Z,13.93
2022-10-18T07:31:41.005Z,13.83
2022-10-18T07:34:12.043Z,13.76
2022-10-18T07:36:39.969Z,14.02
2022-10-18T07:39:08.119Z,14.11
2022-10-18T07:41:36.331Z,14.51
2022-10-18T07:44:05.251Z,14.70
2022-10-18T07:46:32.892Z,14.82
2022-10-18T07:49:00.467Z,15.08
2022-10-18T07:51:28.448Z,14.70
2022-10-18T07:53:55.859Z,15.44
2022-10-18T07:56:23.915Z,15.80
2022-10-18T07:58:54.110Z,15.41
2022-10-18T08:01:25.281Z,15.16
2022-10-18T08:03:54.279Z,15.23
2022-10-18T08:06:23.618Z,15.30
2022-10-18T08:08:52.256Z,15.85
2022-10-18T08:11:23.882Z,15.96
2022-10-18T08:13:52.570Z,15.95
2022-10-18T08:16:24.064Z,16.50
2022-10-18T08:18:51.679Z,16.57
2022-10-18T08:21:21.265Z,16.55
2022-10-18T08:23:50.181Z,16.83
2022-10-18T08:26:21.400Z,17.35
2022-10-18T08:28:58.238Z,17.76
2022-10-18T08:31:34.325Z,17.16
2022-10-18T08:34:01.767Z,17.71
2022-10-18T08:36:29.306Z,17.59
2022-10-18T08:38:56.756Z,17.42
2022-10-18T08:42:17.314Z,17.52
2022-10-18T08:44:48.207Z,17.67
2022-10-18T08:47:21.413Z,18.00
2022-10-18T08:49:52.448Z,18.71
2022-10-18T08:52:56.888Z,18.29
2022-10-18T08:55:52.589Z,18.24
2022-10-18T08:58:31.746Z,18.63
2022-10-18T09:01:23.316Z,18.97
2022-10-18T09:04:40.049Z,19.40
2022-10-18T09:08:13.075Z,19.57
2022-10-18T09:11:41.358Z,19.30
2022-10-18T09:14:42.402Z,19.10
2022-10-18T09:17:40.890Z,19.44
2022-10-18T09:20:24.508Z,19.72
2022-10-18T09:23:01.145Z,19.94
2022-10-18T09:25:48.919Z,20.38
2022-10-18T09:28:22.069Z,20.19
2022-10-18T09:31:37.628Z,20.55
2022-10-18T09:34:25.009Z,21.03
2022-10-18T09:36:53.353Z,20.88
2022-10-18T09:39:30.764Z,21.09
2022-10-18T09:42:04.313Z,20.91
2022-10-18T09:45:00.505Z,20.36
2022-10-18T09:47:37.781Z,20.53
2022-10-18T09:50:23.024Z,20.84
2022-10-18T09:53:15.803Z,21.25
2022-10-18T09:56:07.020Z,20.87
2022-10-18T09:58:49.714Z,21.10
2022-10-18T10:01:25.793Z,21.21
2022-10-18T10:03:54.159Z,21.25
2022-10-18T10:06:32.348Z,21.43
2022-10-18T10:09:07.514Z,21.73
2022-10-18T10:11:50.661Z,22.03
2022-10-18T10:14:25.987Z,22.37
2022-10-18T10:16:57.455Z,22.60
2022-10-18T10:19:38.470Z,22.86
2022-10-18T10:22:14.908Z,23.14
2022-10-18T10:24:49.141Z,23.84
2022-10-18T10:27:32.110Z,23.81
2022-10-18T10:30:06.850Z,23.13
2022-10-18T10:32:49.284Z,23.05
2022-10-18T10:38:26.567Z,23.60
2022-10-18T10:40:55.095Z,23.70
2022-10-18T10:43:38.885Z,23.72
2022-10-18T10:46:19.379Z,24.21
2022-10-18T10:49:15.390Z,24.42
2022-10-18T10:51:44.353Z,24.19
2022-10-18T10:54:21.487Z,23.90
2022-10-18T10:57:12.475Z,24.23
2022-10-18T10:59:56.367Z,24.20
2022-10-18T11:02:30.900Z,24.48
2022-10-18T11:05:29.498Z,24.74
2022-10-18T11:08:02.493Z,24.63
2022-10-18T11:10:45.863Z,24.91
2022-10-18T11:13:37.055Z,25.30
2022-10-18T11:16:44.737Z,25.84
2022-10-18T11:20:10.240Z,25.82
2022-10-18T11:22:59.859Z,25.30
2022-10-18T11:25:56.095Z,25.68
2022-10-18T11:29:06.747Z,26.13
2022-10-18T11:32:12.827Z,26.40
2022-10-18T11:35:04.546Z,26.67
2022-10-18T11:38:02.990Z,27.01
2022-10-18T11:40:46.506Z,27.38
2022-10-18T11:44:01.008Z,28.09
2022-10-18T11:47:02.107Z,28.58
2022-10-18T11:49:59.759Z,29.03
2022-10-18T11:53:16.585Z,28.25
2022-10-18T11:55:55.767Z,28.69
2022-10-18T11:58:47.511Z,28.59
2022-10-18T12:01:14.915Z,28.79
2022-10-18T12:03:58.427Z,28.75
2022-10-18T12:06:34.952Z,29.07
2022-10-18T12:09:43.854Z,28.86
2022-10-18T12:12:27.500Z,28.86
2022-10-18T12:15:20.156Z,29.17
2022-10-18T12:17:58.761Z,29.25
2022-10-18T12:20:36.218Z,29.55
2022-10-18T12:23:11.827Z,29.83
2022-10-18T12:25:49.714Z,30.42
2022-10-18T12:28:53.676Z,30.67
2022-10-18T12:31:40.734Z,30.89
2022-10-18T12:34:30.936Z,30.16
2022-10-18T12:37:36.608Z,29.95
2022-10-18T12:40:59.454Z,29.49
2022-10-18T12:43:36.867Z,29.62
2022-10-18T12:46:13.071Z,29.81
2022-10-18T12:48:49.041Z,29.55
2022-10-18T12:51:20.661Z,29.91
2022-10-18T12:54:10.255Z,29.73
2022-10-18T12:56:43.109Z,30.24
2022-10-18T12:59:16.352Z,30.93
2022-10-18T13:02:20.755Z,31.03
2022-10-18T13:04:50.244Z,31.39
2022-10-18T13:07:34.131Z,31.27
2022-10-18T13:10:38.235Z,31.65
2022-10-18T13:13:39.278Z,31.78
2022-10-18T13:16:29.138Z,32.40
2022-10-18T13:19:25.497Z,32.37
2022-10-18T13:22:32.539Z,32.13
2022-10-18T13:25:22.322Z,32.49
2022-10-18T13:28:35.934Z,32.49
2022-10-18T13:31:40.938Z,32.96
2022-10-18T13:34:26.037Z,32.77
2022-10-18T13:37:10.135Z,33.11
2022-10-18T13:39:40.555Z,33.21
2022-10-18T13:42:32.721Z,33.46
2022-10-18T13:45:40.618Z,33.18
2022-10-18T13:48:30.939Z,33.24
2022-10-18T13:51:28.244Z,33.15
2022-10-18T13:54:31.045Z,33.68
2022-10-18T13:57:29.946Z,33.62
2022-10-18T14:00:33.117Z,33.64
2022-10-18T14:03:03.855Z,33.94
2022-10-18T14:06:08.100Z,34.06
2022-10-18T14:08:42.858Z,34.01
2022-10-18T14:11:46.190Z,34.30
2022-10-18T14:14:38.240Z,34.60
2022-10-18T14:17:27.882Z,34.74
2022-10-18T14:20:17.615Z,34.61
2022-10-18T14:22:56.612Z,34.47
2022-10-18T14:25:36.878Z,34.50
2022-10-18T14:28:31.427Z,34.18
2022-10-18T14:31:17.661Z,33.55
2022-10-18T14:33:57.666Z,33.21
2022-10-18T14:36:38.161Z,32.99
2022-10-18T14:39:16.587Z,32.93
2022-10-18T14:42:02.534Z,32.65
2022-10-18T14:44:34.874Z,32.48
2022-10-18T14:47:36.685Z,32.19
2022-10-18T14:50:46.212Z,31.97
2022-10-18T14:53:22.158Z,31.68
2022-10-18T14:56:00.774Z,30.19
2022-10-18T14:58:32.614Z,28.77
2022-10-18T15:01:00.705Z,27.86
2022-10-18T15:03:28.700Z,26.97
2022-10-18T15:06:02.129Z,26.28
2022-10-18T15:08:40.107Z,25.51
2022-10-18T15:11:13.339Z,24.94
2022-10-18T15:13:57.487Z,24.46
2022-10-18T15:16:30.979Z,24.06
2022-10-18T15:19:18.647Z,23.87
2022-10-18T15:22:19.762Z,23.55
2022-10-18T15:24:44.913Z,23.15
2022-10-18T15:27:24.596Z,22.79
2022-10-18T15:29:52.402Z,22.70
2022-10-18T15:32:29.085Z,22.45
2022-10-18T15:35:10.264Z,22.11
2022-10-18T15:37:43.956Z,21.80
2022-10-18T15:40:39.379Z,21.54
2022-10-18T15:43:26.729Z,21.16
2022-10-18T15:46:06.617Z,20.90
2022-10-18T15:48:40.838Z,20.78
2022-10-18T15:51:35.085Z,20.66
2022-10-18T15:54:02.626Z,20.39
2022-10-18T15:56:37.688Z,20.20
2022-10-18T15:59:23.396Z,20.11
2022-10-18T16:01:51.072Z,19.93
2022-10-18T16:04:28.132Z,19.76
2022-10-18T16:06:57.438Z,19.63
2022-10-18T16:09:28.690Z,19.43
2022-10-18T16:11:57.446Z,19.32
2022-10-18T16:14:26.907Z,19.17
2022-10-18T16:17:03.729Z,19.15
2022-10-18T16:19:32.626Z,18.90
2022-10-18T16:22:05.975Z,18.76
2022-10-18T16:24:35.295Z,18.60
2022-10-18T16:27:03.580Z,18.59
2022-10-18T16:29:32.996Z,18.49
2022-10-18T16:32:01.232Z,18.43
2022-10-18T16:34:32.214Z,18.46
2022-10-18T16:36:59.891Z,18.25
2022-10-18T16:39:28.507Z,18.24
2022-10-18T16:41:56.067Z,18.16
2022-10-18T16:44:27.310Z,18.13
2022-10-18T16:46:56.338Z,18.04
2022-10-18T16:49:26.769Z,17.95
2022-10-18T16:51:55.445Z,17.88
2022-10-18T16:54:26.478Z,17.79
2022-10-18T16:56:54.120Z,17.72
2022-10-18T16:59:30.402Z,17.67
2022-10-18T17:01:58.704Z,17.59
2022-10-18T17:04:26.377Z,17.64
2022-10-18T17:06:56.526Z,17.49
2022-10-18T17:09:24.067Z,17.42
2022-10-18T17:11:53.071Z,17.35
2022-10-18T17:14:20.641Z,17.34
2022-10-18T17:16:52.254Z,17.19
2022-10-18T17:19:23.447Z,17.15
2022-10-18T17:21:50.917Z,17.02
2022-10-18T17:24:19.920Z,16.90
2022-10-18T17:26:47.472Z,16.88
2022-10-18T17:29:15.028Z,16.73
2022-10-18T17:31:42.710Z,16.59
2022-10-18T17:34:11.335Z,16.58
2022-10-18T17:36:39.483Z,16.47
2022-10-18T17:39:09.044Z,16.48
2022-10-18T17:41:36.785Z,16.37
2022-10-18T17:44:09.709Z,16.33
2022-10-18T17:46:38.332Z,16.30
2022-10-18T17:49:06.549Z,16.27
2022-10-18T17:51:38.989Z,16.28
2022-10-18T17:54:13.232Z,16.20
2022-10-18T17:56:42.844Z,16.07
2022-10-18T17:59:12.268Z,15.94
2022-10-18T18:01:42.397Z,15.85
2022-10-18T18:04:18.034Z,15.71
2022-10-18T18:06:49.114Z,15.05
2022-10-18T18:09:17.671Z,14.81
2022-10-18T18:12:12.562Z,14.70
2022-10-18T18:14:41.686Z,14.63
2022-10-18T18:17:09.406Z,14.64
2022-10-18T18:19:38.251Z,14.66
2022-10-18T18:22:10.488Z,14.62
2022-10-18T18:24:41.555Z,14.52
2022-10-18T18:27:09.720Z,14.46
2022-10-18T18:29:40.797Z,14.44
2022-10-18T18:32:15.527Z,14.27
2022-10-18T18:34:45.047Z,14.08
2022-10-18T18:37:14.574Z,13.93
2022-10-18T18:39:43.656Z,13.89
2022-10-18T18:42:21.138Z,14.13
2022-10-18T18:44:53.801Z,13.97
2022-10-18T18:47:23.646Z,14.03
2022-10-18T18:49:51.782Z,14.08
2022-10-18T18:52:21.144Z,14.10
2022-10-18T18:54:49.741Z,14.18
2022-10-18T18:57:18.168Z,13.99
2022-10-18T18:59:48.054Z,13.91
2022-10-18T19:02:15.739Z,13.84
2022-10-18T19:04:45.831Z,13.94
2022-10-18T19:07:13.527Z,13.90
2022-10-18T19:09:42.388Z,13.92
2022-10-18T19:12:30.348Z,13.80
2022-10-18T19:15:00.679Z,13.71
2022-10-18T19:17:31.339Z,13.81
2022-10-18T19:20:01.172Z,13.82
2022-10-18T19:22:29.136Z,13.69
2022-10-18T19:24:58.178Z,13.66
2022-10-18T19:27:26.297Z,13.70
2022-10-18T19:29:55.191Z,13.62
2022-10-18T19:32:25.762Z,13.53
2022-10-18T19:34:57.355Z,13.61
2022-10-18T19:37:30.624Z,13.43
2022-10-18T19:40:01.857Z,13.43
2022-10-18T19:42:32.321Z,13.56
2022-10-18T19:44:59.922Z,13.47
2022-10-18T19:47:28.951Z,13.43
2022-10-18T19:49:58.289Z,13.42
2022-10-18T19:52:27.091Z,13.34
2022-10-18T19:54:55.363Z,13.22
2022-10-18T19:57:23.371Z,13.28
2022-10-18T19:59:50.903Z,13.34
2022-10-18T20:02:18.749Z,13.23
2022-10-18T20:04:48.509Z,13.16
2022-10-18T20:07:17.067Z,13.16
2022-10-18T20:09:48.080Z,13.14
2022-10-18T20:12:18.962Z,13.11
2022-10-18T20:14:50.130Z,13.22
2022-10-18T20:17:18.234Z,13.21
2022-10-18T20:19:45.752Z,13.28
2022-10-18T20:22:13.459Z,13.30
2022-10-18T20:24:42.467Z,13.38
2022-10-18T20:27:10.011Z,13.34
2022-10-18T20:29:37.958Z,13.32
2022-10-18T20:32:08.499Z,13.38
2022-10-18T20:34:38.908Z,13.48
2022-10-18T20:37:06.973Z,13.40
2022-10-18T20:39:35.277Z,13.48
2022-10-18T20:42:03.007Z,13.41
2022-10-18T20:44:33.597Z,13.50
2022-10-18T20:47:01.158Z,13.49
2022-10-18T20:49:29.726Z,13.41
2022-10-18T20:52:00.743Z,13.44
2022-10-18T20:54:28.302Z,13.32
2022-10-18T20:56:55.816Z,13.31
2022-10-18T20:59:23.633Z,13.16
2022-10-18T21:01:51.479Z,13.24
2022-10-18T21:04:19.007Z,13.02
2022-10-18T21:06:49.908Z,11.84
2022-10-18T21:09:20.209Z,11.30
2022-10-18T21:11:53.952Z,11.22
2022-10-18T21:14:25.193Z,11.29
2022-10-18T21:17:02.179Z,11.16
2022-10-18T21:19:30.383Z,11.12
2022-10-18T21:21:58.555Z,11.02
2022-10-18T21:24:29.986Z,11.01
2022-10-18T21:26:58.244Z,11.04
2022-10-18T21:29:25.916Z,11.10
2022-10-18T21:31:59.443Z,11.12
2022-10-18T21:34:30.105Z,11.12
2022-10-18T21:36:59.652Z,11.23
2022-10-18T21:39:27.232Z,11.29
2022-10-18T21:41:54.706Z,11.40
2022-10-18T21:44:22.329Z,11.50
2022-10-18T21:46:50.751Z,11.50
2022-10-18T21:49:18.506Z,11.30
2022-10-18T21:51:46.101Z,11.45
2022-10-18T21:54:16.209Z,11.31
2022-10-18T21:56:44.512Z,11.42
2022-10-18T21:59:13.595Z,11.45
2022-10-18T22:01:43.638Z,11.29
2022-10-18T22:04:25.581Z,11.29
2022-10-18T22:06:53.338Z,11.36
2022-10-18T22:09:22.155Z,11.29
2022-10-18T22:11:53.450Z,11.28
2022-10-18T22:14:22.643Z,11.08
2022-10-18T22:16:50.971Z,11.05
2022-10-18T22:19:21.153Z,11.03
2022-10-18T22:21:48.973Z,11.03
2022-10-18T22:24:16.748Z,11.19
2022-10-18T22:26:46.664Z,11.03
2022-10-18T22:29:20.249Z,11.34
2022-10-18T22:31:52.206Z,11.40
2022-10-18T22:34:29.243Z,11.33
2022-10-18T22:36:56.898Z,11.36
2022-10-18T22:39:24.690Z,11.35
2022-10-18T22:41:55.911Z,11.25
2022-10-18T22:44:26.652Z,11.30
2022-10-18T22:46:54.355Z,11.22
2022-10-18T22:49:21.894Z,11.28
2022-10-18T22:51:49.361Z,11.15
2022-10-18T22:54:17.017Z,11.17
2022-10-18T22:56:44.579Z,11.20
2022-10-18T22:59:12.288Z,11.27
2022-10-18T23:01:39.754Z,11.07
2022-10-18T23:04:07.484Z,11.08
2022-10-18T23:06:36.987Z,10.97
2022-10-18T23:09:10.612Z,11.03
2022-10-18T23:11:38.562Z,10.92
2022-10-18T23:14:07.729Z,11.06
2022-10-18T23:16:36.104Z,10.91
2022-10-18T23:19:04.218Z,10.77
2022-10-18T23:21:31.665Z,10.71
2022-10-18T23:23:59.634Z,10.80
2022-10-18T23:26:28.869Z,10.77
2022-10-18T23:28:56.985Z,10.69
2022-10-18T23:31:28.216Z,10.85
2022-10-18T23:33:58.604Z,10.91
2022-10-18T23:36:26.260Z,10.71
2022-10-18T23:38:55.096Z,10.64
2022-10-18T23:41:22.830Z,10.64
2022-10-18T23:43:50.883Z,10.56
2022-10-18T23:46:19.644Z,10.39
2022-10-18T23:48:49.012Z,10.41
2022-10-18T23:51:17.800Z,10.38
2022-10-18T23:53:45.484Z,10.37
2022-10-18T23:56:18.928Z,10.38
2022-10-18T23:58:46.558Z,10.34
